• Join FlightAware (Why Join?)
  • Login
  • US Flag 
09:55PM EST


 

Airport Tracker/Info


-or-


 

Live Flight TrackerFlight Track Log ✈ N640MY ✈ 16-Aug-2013 ✈ KDAL - KLFT

Flight Track Log - Related Links

Times and Time Zones

All times are in EDT time to prevent confusion due to time zone crossing. See the N640MY flight status page for this flight to view local times or setup timezone preferences in your user account.

Time Position Orientation Groundspeed Altitude Reporting Facility
EDT Latitude Longitude Course Direction KTS MPH feet Rate Location/Type
10:26PM 32.8667 -96.8667 320° Northwest 131 151 1,100  Level Dallas / Fort Worth TRACON
10:26PM 32.8833 -96.8833 320° Northwest 139 160 1,700 600 Climbing Dallas / Fort Worth TRACON
10:27PM 32.9167 -96.9000 337° Northwest 201 231 2,000 720 Climbing Dallas / Fort Worth TRACON
10:28PM 32.9667 -96.8833 16° North 176 203 3,200 900 Climbing Dallas / Fort Worth TRACON
10:29PM 32.9833 -96.8167 73° East 186 214 3,900 540 Climbing Dallas / Fort Worth TRACON
10:30PM 32.9667 -96.7667 112° Southeast 205 236 4,400 720 Climbing Dallas / Fort Worth TRACON
10:31PM 32.9333 -96.7167 128° Southeast 195 224 5,300 960 Climbing Dallas / Fort Worth TRACON
10:33PM 32.8850 -96.6044 117° Southeast 195 224 7,300 960 Climbing Fort Worth Center
10:34PM 32.8575 -96.5431 118° Southeast 195 224 8,300 900 Climbing Fort Worth Center
10:35PM 32.8322 -96.4889 119° Southeast 195 224 9,200 840 Climbing Fort Worth Center
10:36PM 32.8003 -96.4222 120° Southeast 205 236 10,000 360 Climbing Fort Worth Center
10:37PM 32.7725 -96.3583 117° Southeast 220 253 10,000  Level Fort Worth Center
10:38PM 32.7489 -96.2722 108° East 241 277 10,000 300 Level Fort Worth Center
10:39PM 32.7397 -96.1983 98° East 246 283 10,600 780 Climbing Fort Worth Center
10:40PM 32.7286 -96.1194 99° East 234 269 11,600 900 Climbing Fort Worth Center
10:41PM 32.7175 -96.0528 101° East 228 262 12,500 900 Climbing Fort Worth Center
10:42PM 32.7042 -95.9767 102° East 217 250 13,500 900 Climbing Fort Worth Center
10:43PM 32.6950 -95.9125 100° East 217 250 14,400 960 Climbing Fort Worth Center
10:44PM 32.6586 -95.8464 123° Southeast 217 250 15,500 900 Climbing Fort Worth Center
10:45PM 32.6225 -95.7928 129° Southeast 222 255 16,300 900 Climbing Fort Worth Center
10:46PM 32.5800 -95.7294 129° Southeast 228 262 17,400 960 Climbing Fort Worth Center
10:47PM 32.5375 -95.6711 131° Southeast 228 262 18,300 900 Climbing Fort Worth Center
10:48PM 32.4992 -95.6153 129° Southeast 228 262 19,200 900 Climbing Fort Worth Center
10:49PM 32.4606 -95.5569 128° Southeast 228 262 20,200 900 Climbing Fort Worth Center
10:50PM 32.4222 -95.5036 130° Southeast 228 262 21,100 900 Climbing Fort Worth Center
10:51PM 32.3839 -95.4478 129° Southeast 223 257 22,100 840 Climbing Fort Worth Center
10:52PM 32.3497 -95.3944 127° Southeast 218 251 22,900 420 Climbing Fort Worth Center
10:53PM 32.3131 -95.3364 127° Southeast 218 251 23,000  Climbing Fort Worth Center
10:54PM 32.2744 -95.2633 122° Southeast 233 268 23,000  Level Fort Worth Center
10:55PM 32.2250 -95.1908 129° Southeast 264 304 23,000  Level Fort Worth Center
10:56PM 32.1864 -95.1231 124° Southeast 276 318 23,000  Level Fort Worth Center
10:57PM 32.1411 -95.0458 125° Southeast 283 326 23,000  Level Fort Worth Center
10:58PM 32.0936 -94.9686 126° Southeast 283 326 23,000  Level Fort Worth Center
10:59PM 32.0483 -94.8936 125° Southeast 283 326 23,000  Level Fort Worth Center
11:00PM 31.9964 -94.8069 125° Southeast 283 326 23,000  Level Fort Worth Center
11:01PM 31.9489 -94.7325 127° Southeast 283 326 23,000  Level Fort Worth Center
11:02PM 31.9014 -94.6556 126° Southeast 283 326 23,000  Level Fort Worth Center
11:03PM 31.8558 -94.5786 125° Southeast 283 326 23,000  Level Fort Worth Center
11:04PM 31.8083 -94.5044 127° Southeast 283 326 23,000  Level Fort Worth Center
11:06PM 31.7528 -94.4153 126° Southeast 288 331 23,000  Level Houston Center
11:07PM 31.7064 -94.3406 126° Southeast 284 327 23,000  Level Houston Center
11:08PM 31.6597 -94.2628 125° Southeast 288 331 23,000  Level Houston Center
11:09PM 31.6119 -94.1864 126° Southeast 288 331 23,000  Level Houston Center
11:10PM 31.5639 -94.1111 127° Southeast 287 330 23,000  Level Houston Center
11:11PM 31.5181 -94.0356 125° Southeast 286 329 23,000  Level Houston Center
11:12PM 31.4706 -93.9614 127° Southeast 283 326 23,000  Level Houston Center
11:13PM 31.4236 -93.8858 126° Southeast 285 328 23,000  Level Houston Center
11:14PM 31.3669 -93.7958 126° Southeast 285 328 23,000  Level Houston Center
11:15PM 31.3197 -93.7217 127° Southeast 285 328 23,000  Level Houston Center
11:16PM 31.2731 -93.6472 126° Southeast 284 327 23,000  Level Houston Center
11:17PM 31.2269 -93.5736 126° Southeast 283 326 23,000  Level Houston Center
11:18PM 31.1800 -93.4997 127° Southeast 283 326 23,000  Level Houston Center
11:19PM 31.1325 -93.4247 126° Southeast 284 327 23,000  Level Houston Center
11:20PM 31.0853 -93.3511 127° Southeast 284 327 23,000  Level Houston Center
11:21PM 31.0394 -93.2775 126° Southeast 282 325 23,000  Level Houston Center
11:22PM 30.9919 -93.2050 127° Southeast 281 323 23,000  Level Houston Center
11:23PM 30.9464 -93.1325 126° Southeast 278 320 23,000  Level Houston Center
11:24PM 30.9000 -93.0594 126° Southeast 279 321 23,000  Level Houston Center
11:25PM 30.8539 -92.9872 127° Southeast 279 321 23,000  Level Houston Center
11:26PM 30.8061 -92.9153 128° Southeast 277 319 23,000 -240 Level Houston Center
11:27PM 30.7606 -92.8436 126° Southeast 277 319 22,600 -1,080 Descending Houston Center
11:28PM 30.7014 -92.7472 126° Southeast 295 339 20,900 -1,560 Descending Houston Center
11:29PM 30.6475 -92.6650 127° Southeast 310 357 19,500 -1,440 Descending Houston Center
11:30PM 30.5958 -92.5878 128° Southeast 310 357 18,000 -1,620 Descending Houston Center
11:31PM 30.5472 -92.5131 127° Southeast 297 342 16,300 -1,740 Descending Houston Center
11:32PM 30.5008 -92.4403 126° Southeast 285 328 14,500 -1,920 Descending Houston Center
11:33PM 30.4578 -92.3739 127° Southeast 253 291 12,500 -1,860 Descending Houston Center
11:34PM 30.4194 -92.3150 127° Southeast 239 275 10,800 -1,680 Descending Houston Center
11:36PM 30.3508 -92.2365 135° Southeast  Level FlightAware Approximate
11:43PM 30.2000 -91.9833 North  Level FlightAware Approximate
11:44PM 30.2050 -91.9877 North  Level Estimated
11:45PM 30.2000 -91.9833 North  Level FlightAware Approximate
11:46PM 30.2050 -91.9877 North  Level Estimated
11:47PM 30.2000 -91.9833 North  Level FlightAware Approximate
11:48PM 30.2050 -91.9877 North  Level Estimated
11:49PM 30.2000 -91.9833 North  Level FlightAware Approximate
11:50PM 30.2050 -91.9877 North  Level Estimated
11:51PM 30.2000 -91.9833 North  Level FlightAware Approximate
11:52PM 30.2050 -91.9877 North  Level Estimated
11:53PM 30.2000 -91.9833 North  Level FlightAware Approximate
11:54PM 30.2050 -91.9877 North  Level Estimated
11:55PM 30.2000 -91.9833 North  Level FlightAware Approximate
11:56PM 30.2050 -91.9877 North  Level Estimated
11:57PM 30.2000 -91.9833 North  Level FlightAware Approximate
11:58PM 30.2050 -91.9877 North  Level Estimated
11:59PM 30.2000 -91.9833 North  Level FlightAware Approximate
12:00AM 30.2050 -91.9877 North  Level Estimated